MAPA DE AEROPUERTO

INFORMACIÓN METAR y TAF

METAR FOR LTAI
ADDS - METARS form results

(1542 UTC 07 May 2021)
Data provider http://aviationweather.gov/metar/data/
 
METAR text: LTAI 071520Z 12007KT CAVOK 25/16 Q1014 NOSIG RMK RWY18C 13007KT 090V150 RWY36R 11008KT 090V150 RWY18L 12006KT 090V150
Conditions at: LTAI (ANTALYA (CIV/MIL, TR) observed 1520 UTC 07 May 2021
Temperature: 25.0°C (77°F)
Dewpoint: 16.0°C (61°F) [RH = 57%]
Pressure (altimeter): 29.94 inches Hg (1014.0 mb)
Winds: from the ESE (120 degrees) at 8 MPH (7 knots; 3.6 m/s)
Visibility: 6 or more miles (10+ km)
Ceiling: ceiling and visibility are OK
Clouds: unknown
Weather: no significant weather observed at this time

METAR text: LTAI 071450Z 13007KT 100V170 CAVOK 25/16 Q1014 NOSIG RMK RWY18C 13008KT 100V170 RWY36R 13008KT RWY18L 14007KT 110V180
Conditions at: LTAI (ANTALYA (CIV/MIL, TR) observed 1450 UTC 07 May 2021
Temperature: 25.0°C (77°F)
Dewpoint: 16.0°C (61°F) [RH = 57%]
Pressure (altimeter): 29.94 inches Hg (1014.0 mb)
Winds: from the SE (130 degrees) at 8 MPH (7 knots; 3.6 m/s)
Visibility: 6 or more miles (10+ km)
Ceiling: ceiling and visibility are OK
Clouds: unknown
Weather: no significant weather observed at this time

Forecast for: LTAI (ANTALYA (CIV/MIL, TR)
Text: TAF LTAI 071040Z 0712/0812 16012KT CAVOK
Forecast period: 1200 to 1500 UTC 07 May 2021
Forecast type: FROM: standard forecast or significant change
Winds: from the SSE (160 degrees) at 14 MPH (12 knots; 6.2 m/s)
Visibility: 6 or more miles (10+ km)
Ceiling: unknown
Clouds: missing
Weather: NSW  (no significant weather)
Text: BECMG 0715/0718 VRB02KT
Forecast period: 1500 UTC 07 May 2021 to 0600 UTC 08 May 2021
Forecast type: BECOMING: Conditions expected to become as follows by 1800 UTC 07 May 2021
Winds: variable direction winds at 2 MPH (2 knots; 1.0 m/s)
Visibility: 6 or more miles (10+ km)
Ceiling: unknown
Clouds: missing
Weather: NSW  (no significant weather)
Text: BECMG 0806/0809 16012KT FEW030 BKN180
Forecast period: 0600 to 1200 UTC 08 May 2021
Forecast type: BECOMING: Conditions expected to become as follows by 0900 UTC 08 May 2021
Winds: from the SSE (160 degrees) at 14 MPH (12 knots; 6.2 m/s)
Visibility: 6 or more miles (10+ km)
Ceiling: 18000 feet AGL
Clouds: few clouds at 3000 feet AGL
broken clouds at 18000 feet AGL
Weather: NSW  (no significant weather)